createdAt,value
2022-08-03T00:02:19.603Z,18.32
2022-08-03T00:04:48.038Z,18.39
2022-08-03T00:07:16.090Z,18.65
2022-08-03T00:09:44.176Z,18.57
2022-08-03T00:12:12.569Z,18.81
2022-08-03T00:14:40.451Z,19.17
2022-08-03T00:17:08.379Z,18.83
2022-08-03T00:19:36.459Z,19.10
2022-08-03T00:22:04.279Z,18.99
2022-08-03T00:24:31.982Z,18.70
2022-08-03T00:27:00.067Z,18.77
2022-08-03T00:29:28.279Z,18.35
2022-08-03T00:31:59.566Z,18.87
2022-08-03T00:34:57.048Z,18.49
2022-08-03T00:37:16.588Z,18.68
2022-08-03T00:39:47.411Z,18.68
2022-08-03T00:42:16.261Z,18.60
2022-08-03T00:44:45.119Z,18.90
2022-08-03T00:47:13.350Z,18.96
2022-08-03T00:49:41.821Z,18.91
2022-08-03T00:52:10.693Z,18.61
2022-08-03T00:54:38.946Z,18.86
2022-08-03T00:57:07.849Z,18.48
2022-08-03T00:59:37.129Z,18.90
2022-08-03T01:02:04.990Z,18.83
2022-08-03T01:04:32.851Z,18.78
2022-08-03T01:07:13.030Z,18.21
2022-08-03T01:09:57.110Z,18.77
2022-08-03T01:12:33.252Z,18.09
2022-08-03T01:15:13.594Z,18.31
2022-08-03T01:18:06.435Z,18.53
2022-08-03T01:20:36.783Z,18.68
2022-08-03T01:23:13.960Z,18.22
2022-08-03T01:25:59.119Z,18.48
2022-08-03T01:28:55.191Z,17.98
2022-08-03T01:31:27.960Z,17.95
2022-08-03T01:34:04.049Z,18.19
2022-08-03T01:36:43.860Z,17.93
2022-08-03T01:39:12.419Z,17.39
2022-08-03T01:41:48.818Z,17.83
2022-08-03T01:44:29.442Z,17.89
2022-08-03T01:47:00.520Z,17.76
2022-08-03T01:49:34.478Z,18.08
2022-08-03T01:52:05.204Z,18.14
2022-08-03T01:54:36.829Z,18.25
2022-08-03T01:57:05.156Z,18.21
2022-08-03T01:59:35.049Z,18.17
2022-08-03T02:02:28.416Z,18.01
2022-08-03T02:04:54.839Z,18.01
2022-08-03T02:07:24.200Z,18.18
2022-08-03T02:09:53.168Z,17.96
2022-08-03T02:12:22.766Z,18.23
2022-08-03T02:14:51.008Z,18.14
2022-08-03T02:17:39.916Z,18.21
2022-08-03T02:20:09.881Z,17.81
2022-08-03T02:22:40.579Z,18.17
2022-08-03T02:25:13.699Z,17.94
2022-08-03T02:28:09.070Z,18.34
2022-08-03T02:30:39.564Z,18.47
2022-08-03T02:33:11.627Z,18.26
2022-08-03T02:35:40.237Z,18.43
2022-08-03T02:38:09.279Z,18.20
2022-08-03T02:40:37.379Z,18.26
2022-08-03T02:43:08.509Z,18.26
2022-08-03T02:45:45.689Z,18.09
2022-08-03T02:48:16.803Z,18.25
2022-08-03T02:50:45.618Z,18.36
2022-08-03T02:53:14.410Z,18.48
2022-08-03T02:55:45.627Z,18.45
2022-08-03T02:58:14.904Z,18.49
2022-08-03T03:00:44.537Z,18.50
2022-08-03T03:03:12.838Z,18.50
2022-08-03T03:05:54.682Z,18.32
2022-08-03T03:08:28.506Z,18.32
2022-08-03T03:11:00.228Z,18.17
2022-08-03T03:13:31.918Z,18.03
2022-08-03T03:16:01.820Z,17.78
2022-08-03T03:18:31.720Z,18.15
2022-08-03T03:21:01.435Z,18.24
2022-08-03T03:23:30.079Z,18.25
2022-08-03T03:25:59.088Z,17.89
2022-08-03T03:28:26.946Z,17.98
2022-08-03T03:30:55.158Z,18.08
2022-08-03T03:33:23.539Z,18.16
2022-08-03T03:35:52.047Z,18.00
2022-08-03T03:38:20.603Z,17.77
2022-08-03T03:40:48.560Z,18.03
2022-08-03T03:43:18.697Z,17.99
2022-08-03T03:45:47.945Z,18.11
2022-08-03T03:48:16.169Z,18.19
2022-08-03T03:50:44.598Z,18.00
2022-08-03T03:53:15.009Z,18.09
2022-08-03T03:55:59.373Z,18.36
2022-08-03T03:58:32.523Z,18.14
2022-08-03T04:01:01.173Z,18.22
2022-08-03T04:03:29.271Z,18.30
2022-08-03T04:06:16.182Z,18.19
2022-08-03T04:09:03.991Z,17.49
2022-08-03T04:11:46.157Z,17.48
2022-08-03T04:14:33.206Z,18.69
2022-08-03T04:17:06.169Z,18.91
2022-08-03T04:19:44.464Z,19.03
2022-08-03T04:22:19.108Z,19.24
2022-08-03T04:24:49.879Z,18.93
2022-08-03T04:27:24.527Z,19.05
2022-08-03T04:29:55.338Z,19.44
2022-08-03T04:32:25.464Z,19.81
2022-08-03T04:34:54.062Z,20.03
2022-08-03T04:37:30.257Z,19.86
2022-08-03T04:40:00.209Z,20.06
2022-08-03T04:42:28.697Z,20.25
2022-08-03T04:45:01.049Z,20.63
2022-08-03T04:47:34.659Z,20.86
2022-08-03T04:50:03.901Z,20.66
2022-08-03T04:52:32.349Z,21.69
2022-08-03T04:55:00.168Z,21.98
2022-08-03T04:57:27.949Z,21.68
2022-08-03T05:00:02.240Z,22.18
2022-08-03T05:02:32.553Z,22.43
2022-08-03T05:05:01.210Z,22.25
2022-08-03T05:07:36.555Z,22.60
2022-08-03T05:10:15.937Z,22.85
2022-08-03T05:12:46.227Z,23.23
2022-08-03T05:15:14.756Z,23.20
2022-08-03T05:17:42.965Z,23.91
2022-08-03T05:20:11.540Z,24.56
2022-08-03T05:22:39.758Z,24.66
2022-08-03T05:25:07.986Z,24.59
2022-08-03T05:27:36.348Z,24.58
2022-08-03T05:30:30.788Z,24.88
2022-08-03T05:32:53.732Z,25.47
2022-08-03T05:35:57.846Z,25.20
2022-08-03T05:38:10.076Z,25.85
2022-08-03T05:40:38.767Z,26.02
2022-08-03T05:43:14.733Z,26.69
2022-08-03T05:45:43.428Z,26.14
2022-08-03T05:48:11.150Z,26.51
2022-08-03T05:50:42.773Z,26.43
2022-08-03T05:53:11.060Z,27.40
2022-08-03T05:55:38.901Z,27.44
2022-08-03T05:58:06.727Z,27.88
2022-08-03T06:00:35.020Z,28.50
2022-08-03T06:03:03.319Z,27.16
2022-08-03T06:05:31.610Z,28.23
2022-08-03T06:07:59.513Z,27.14
2022-08-03T06:10:34.467Z,28.11
2022-08-03T06:13:05.588Z,28.64
2022-08-03T06:15:35.589Z,28.85
2022-08-03T06:18:03.544Z,28.52
2022-08-03T06:20:31.268Z,29.04
2022-08-03T06:23:01.391Z,29.00
2022-08-03T06:25:29.500Z,28.62
2022-08-03T06:27:57.422Z,28.64
2022-08-03T06:30:25.702Z,29.21
2022-08-03T06:32:53.510Z,28.82
2022-08-03T06:35:21.399Z,29.55
2022-08-03T06:37:51.232Z,29.45
2022-08-03T06:40:24.276Z,29.33
2022-08-03T06:42:52.804Z,30.45
2022-08-03T06:45:20.679Z,30.20
2022-08-03T06:47:48.589Z,29.61
2022-08-03T06:50:21.719Z,30.48
2022-08-03T06:52:52.077Z,29.69
2022-08-03T06:55:20.200Z,29.98
2022-08-03T06:57:47.990Z,30.72
2022-08-03T07:00:16.700Z,29.69
2022-08-03T07:02:48.261Z,29.84
2022-08-03T07:05:20.914Z,30.43
2022-08-03T07:07:49.561Z,30.34
2022-08-03T07:10:17.267Z,29.86
2022-08-03T07:12:56.206Z,30.04
2022-08-03T07:15:38.386Z,30.47
2022-08-03T07:18:13.451Z,31.35
2022-08-03T07:20:41.583Z,31.88
2022-08-03T07:23:10.013Z,31.08
2022-08-03T07:25:47.205Z,31.66
2022-08-03T07:28:15.041Z,31.27
2022-08-03T07:30:42.902Z,31.15
2022-08-03T07:33:10.989Z,31.77
2022-08-03T07:35:39.220Z,32.00
2022-08-03T07:38:07.094Z,32.24
2022-08-03T07:40:35.290Z,31.92
2022-08-03T07:43:03.920Z,31.45
2022-08-03T07:45:32.441Z,32.63
2022-08-03T07:48:00.560Z,32.63
2022-08-03T07:50:28.420Z,33.05
2022-08-03T07:52:58.007Z,33.97
2022-08-03T07:55:26.871Z,31.62
2022-08-03T07:58:07.003Z,32.40
2022-08-03T08:00:35.420Z,33.61
2022-08-03T08:03:03.630Z,32.83
2022-08-03T08:05:31.846Z,32.75
2022-08-03T08:08:00.703Z,32.82
2022-08-03T08:10:29.260Z,32.50
2022-08-03T08:12:57.676Z,33.16
2022-08-03T08:15:25.590Z,33.76
2022-08-03T08:18:00.110Z,32.53
2022-08-03T08:20:31.521Z,32.80
2022-08-03T08:23:02.810Z,33.94
2022-08-03T08:25:32.453Z,33.57
2022-08-03T08:28:31.371Z,33.84
2022-08-03T08:30:52.601Z,33.49
2022-08-03T08:33:23.380Z,33.89
2022-08-03T08:35:53.446Z,33.37
2022-08-03T08:38:22.761Z,34.65
2022-08-03T08:40:51.186Z,33.81
2022-08-03T08:43:19.159Z,34.69
2022-08-03T08:45:50.810Z,33.11
2022-08-03T08:48:25.312Z,33.10
2022-08-03T08:50:54.761Z,34.19
2022-08-03T08:53:27.628Z,33.43
2022-08-03T08:56:01.095Z,32.85
2022-08-03T08:58:31.185Z,33.52
2022-08-03T09:00:59.495Z,33.62
2022-08-03T09:03:30.229Z,33.96
2022-08-03T09:06:02.675Z,33.58
2022-08-03T09:08:32.302Z,34.60
2022-08-03T09:11:00.838Z,35.86
2022-08-03T09:13:30.644Z,35.61
2022-08-03T09:16:27.939Z,33.70
2022-08-03T09:18:56.120Z,34.12
2022-08-03T09:21:34.677Z,35.27
2022-08-03T09:24:06.296Z,35.07
2022-08-03T09:26:37.800Z,34.76
2022-08-03T09:29:13.796Z,34.51
2022-08-03T09:31:46.744Z,35.05
2022-08-03T09:34:17.185Z,35.34
2022-08-03T09:36:47.171Z,35.78
2022-08-03T09:39:30.094Z,35.86
2022-08-03T09:42:14.811Z,35.92
2022-08-03T09:44:44.530Z,35.67
2022-08-03T09:47:14.212Z,35.18
2022-08-03T09:49:43.177Z,34.70
2022-08-03T09:52:31.977Z,35.50
2022-08-03T09:56:31.652Z,35.62
2022-08-03T09:58:07.440Z,36.49
2022-08-03T10:00:59.767Z,35.47
2022-08-03T10:03:31.200Z,35.53
2022-08-03T10:06:00.144Z,35.39
2022-08-03T10:08:28.689Z,35.40
2022-08-03T10:10:58.869Z,35.29
2022-08-03T10:13:27.382Z,35.43
2022-08-03T10:16:23.605Z,35.67
2022-08-03T10:18:43.442Z,35.77
2022-08-03T10:21:13.121Z,36.34
2022-08-03T10:23:41.750Z,36.73
2022-08-03T10:26:10.748Z,37.11
2022-08-03T10:28:45.084Z,36.57
2022-08-03T10:31:14.465Z,37.08
2022-08-03T10:33:51.887Z,36.40
2022-08-03T10:36:24.098Z,36.38
2022-08-03T10:38:53.945Z,36.58
2022-08-03T10:41:23.898Z,36.83
2022-08-03T10:44:11.160Z,37.14
2022-08-03T10:46:44.802Z,37.60
2022-08-03T10:49:15.771Z,37.34
2022-08-03T10:51:45.458Z,36.90
2022-08-03T10:54:35.710Z,37.05
2022-08-03T10:57:22.632Z,36.94
2022-08-03T10:59:51.344Z,37.10
2022-08-03T11:02:19.411Z,36.41
2022-08-03T11:04:47.302Z,35.52
2022-08-03T11:07:24.050Z,36.83
2022-08-03T11:09:56.770Z,36.58
2022-08-03T11:12:33.607Z,35.89
2022-08-03T11:15:07.490Z,36.52
2022-08-03T11:17:46.204Z,36.66
2022-08-03T11:20:58.278Z,36.55
2022-08-03T11:24:05.458Z,36.42
2022-08-03T11:26:34.685Z,36.48
2022-08-03T11:29:29.785Z,35.71
2022-08-03T11:31:58.089Z,33.56
2022-08-03T11:34:26.471Z,33.58
2022-08-03T11:37:21.853Z,32.91
2022-08-03T11:39:53.217Z,33.13
2022-08-03T11:42:27.689Z,34.06
2022-08-03T11:44:56.587Z,34.27
2022-08-03T11:47:27.198Z,34.02
2022-08-03T11:49:59.270Z,33.19
2022-08-03T11:52:28.878Z,33.14
2022-08-03T11:54:57.583Z,33.27
2022-08-03T11:59:10.623Z,33.81
2022-08-03T12:00:32.229Z,32.53
2022-08-03T12:03:03.113Z,33.50
2022-08-03T12:05:39.885Z,33.28
2022-08-03T12:08:10.289Z,33.06
2022-08-03T12:10:39.335Z,33.19
2022-08-03T12:14:43.730Z,33.85
2022-08-03T12:15:59.483Z,34.15
2022-08-03T12:18:27.420Z,34.42
2022-08-03T12:21:13.529Z,33.40
2022-08-03T12:23:41.993Z,33.18
2022-08-03T12:26:10.520Z,33.41
2022-08-03T12:28:38.662Z,32.93
2022-08-03T12:31:09.747Z,32.90
2022-08-03T12:33:59.230Z,32.62
2022-08-03T12:36:28.211Z,32.82
2022-08-03T12:39:00.889Z,32.41
2022-08-03T12:41:36.767Z,33.59
2022-08-03T12:44:06.166Z,34.29
2022-08-03T12:46:36.807Z,33.95
2022-08-03T12:49:12.397Z,34.06
2022-08-03T12:51:43.776Z,34.38
2022-08-03T12:54:24.691Z,34.83
2022-08-03T12:57:11.336Z,34.15
2022-08-03T12:59:53.426Z,34.83
2022-08-03T13:02:23.762Z,35.17
2022-08-03T13:04:53.159Z,35.65
2022-08-03T13:07:22.584Z,36.15
2022-08-03T13:09:55.697Z,36.10
2022-08-03T13:12:25.999Z,35.86
2022-08-03T13:14:56.963Z,36.13
2022-08-03T13:17:25.349Z,36.73
2022-08-03T13:19:53.780Z,35.76
2022-08-03T13:22:25.561Z,35.78
2022-08-03T13:24:59.049Z,36.00
2022-08-03T13:28:03.259Z,36.33
2022-08-03T13:30:28.217Z,36.12
2022-08-03T13:33:00.289Z,35.30
2022-08-03T13:35:28.646Z,35.67
2022-08-03T13:37:56.407Z,35.92
2022-08-03T13:40:29.950Z,35.66
2022-08-03T13:42:58.964Z,35.34
2022-08-03T13:45:27.815Z,35.08
2022-08-03T13:47:55.690Z,35.27
2022-08-03T13:50:23.809Z,35.14
2022-08-03T13:52:52.080Z,34.48
2022-08-03T13:55:20.003Z,35.35
2022-08-03T13:58:03.563Z,34.69
2022-08-03T14:00:33.390Z,35.00
2022-08-03T14:03:09.156Z,35.44
2022-08-03T14:05:41.729Z,35.53
2022-08-03T14:08:10.378Z,35.06
2022-08-03T14:10:40.653Z,34.91
2022-08-03T14:13:09.232Z,34.16
2022-08-03T14:15:38.680Z,33.85
2022-08-03T14:18:15.383Z,33.75
2022-08-03T14:20:47.741Z,34.23
2022-08-03T14:23:18.349Z,34.67
2022-08-03T14:25:52.039Z,35.20
2022-08-03T14:28:25.259Z,35.45
2022-08-03T14:30:54.272Z,35.33
2022-08-03T14:33:22.498Z,35.24
2022-08-03T14:35:50.909Z,34.76
2022-08-03T14:38:19.199Z,35.39
2022-08-03T14:40:47.572Z,35.45
2022-08-03T14:43:18.154Z,35.22
2022-08-03T14:45:46.603Z,34.49
2022-08-03T14:50:29.738Z,35.10
2022-08-03T14:51:02.743Z,35.62
2022-08-03T14:53:30.668Z,35.06
2022-08-03T14:55:58.493Z,35.26
2022-08-03T14:58:27.011Z,35.71
2022-08-03T15:00:55.901Z,35.02
2022-08-03T15:03:25.176Z,34.67
2022-08-03T15:05:55.208Z,34.86
2022-08-03T15:08:24.191Z,35.56
2022-08-03T15:10:53.150Z,34.30
2022-08-03T15:13:21.422Z,34.45
2022-08-03T15:15:50.066Z,34.35
2022-08-03T15:18:17.947Z,34.52
2022-08-03T15:20:47.326Z,34.16
2022-08-03T15:23:15.720Z,34.19
2022-08-03T15:26:03.704Z,34.71
2022-08-03T15:28:33.250Z,34.76
2022-08-03T15:31:01.418Z,34.54
2022-08-03T15:33:29.556Z,34.40
2022-08-03T15:36:00.171Z,34.49
2022-08-03T15:38:28.125Z,34.75
2022-08-03T15:40:55.958Z,33.98
2022-08-03T15:43:24.193Z,34.09
2022-08-03T15:46:19.214Z,35.04
2022-08-03T15:48:40.920Z,34.44
2022-08-03T15:51:09.280Z,34.58
2022-08-03T15:53:37.699Z,34.32
2022-08-03T15:56:11.335Z,33.63
2022-08-03T15:59:09.726Z,33.40
2022-08-03T16:01:30.707Z,33.84
2022-08-03T16:03:58.930Z,33.67
2022-08-03T16:06:34.955Z,33.53
2022-08-03T16:09:22.899Z,33.96
2022-08-03T16:11:52.351Z,33.40
2022-08-03T16:14:32.424Z,32.87
2022-08-03T16:17:05.830Z,32.94
2022-08-03T16:19:34.081Z,33.70
2022-08-03T16:22:03.535Z,33.35
2022-08-03T16:24:32.253Z,33.69
2022-08-03T16:27:00.696Z,33.42
2022-08-03T16:29:28.861Z,33.95
2022-08-03T16:31:56.704Z,34.23
2022-08-03T16:34:24.933Z,34.04
2022-08-03T16:36:52.820Z,33.63
2022-08-03T16:39:20.675Z,33.43
2022-08-03T16:42:00.355Z,32.72
2022-08-03T16:44:30.128Z,33.14
2022-08-03T16:46:59.583Z,33.43
2022-08-03T16:49:54.467Z,33.48
2022-08-03T16:52:16.561Z,33.37
2022-08-03T16:54:53.267Z,33.10
2022-08-03T16:57:56.688Z,32.79
2022-08-03T17:00:12.494Z,32.86
2022-08-03T17:03:04.230Z,32.94
2022-08-03T17:05:47.353Z,32.99
2022-08-03T17:08:16.424Z,32.47
2022-08-03T17:10:54.905Z,32.03
2022-08-03T17:13:38.825Z,31.41
2022-08-03T17:16:10.606Z,31.51
2022-08-03T17:18:47.517Z,31.15
2022-08-03T17:21:16.535Z,30.99
2022-08-03T17:23:50.591Z,30.88
2022-08-03T17:26:21.977Z,30.57
2022-08-03T17:28:57.408Z,30.63
2022-08-03T17:31:30.746Z,30.19
2022-08-03T17:34:04.250Z,30.22
2022-08-03T17:37:02.176Z,30.65
2022-08-03T17:39:41.639Z,31.32
2022-08-03T17:42:30.422Z,31.21
2022-08-03T17:45:02.057Z,30.87
2022-08-03T17:47:41.196Z,30.93
2022-08-03T17:50:25.404Z,30.66
2022-08-03T17:53:24.463Z,30.49
2022-08-03T17:56:40.249Z,29.78
2022-08-03T17:59:16.196Z,29.55
2022-08-03T18:02:14.499Z,29.09
2022-08-03T18:05:00.659Z,29.03
2022-08-03T18:07:40.775Z,28.96
2022-08-03T18:10:11.278Z,28.75
2022-08-03T18:13:10.415Z,28.51
2022-08-03T18:16:03.090Z,27.90
2022-08-03T18:18:38.649Z,27.51
2022-08-03T18:21:09.399Z,27.32
2022-08-03T18:23:45.262Z,27.56
2022-08-03T18:26:18.986Z,27.32
2022-08-03T18:28:48.239Z,27.19
2022-08-03T18:34:17.325Z,26.89
2022-08-03T18:36:56.389Z,26.02
2022-08-03T18:39:24.456Z,25.62
2022-08-03T18:41:52.750Z,25.95
2022-08-03T18:44:37.661Z,25.42
2022-08-03T18:47:52.322Z,25.20
2022-08-03T18:50:48.277Z,25.53
2022-08-03T18:53:20.298Z,25.75
2022-08-03T18:56:02.237Z,25.17
2022-08-03T18:59:02.192Z,25.21
2022-08-03T19:02:00.851Z,25.37
2022-08-03T19:04:34.137Z,25.17
2022-08-03T19:07:08.064Z,25.03
2022-08-03T19:09:53.084Z,24.87
2022-08-03T19:12:43.117Z,24.28
2022-08-03T19:15:15.788Z,23.97
2022-08-03T19:17:50.195Z,24.38
2022-08-03T19:20:23.050Z,24.00
2022-08-03T19:22:55.419Z,24.03
2022-08-03T19:25:34.599Z,24.35
2022-08-03T19:28:11.849Z,23.91
2022-08-03T19:30:46.268Z,23.79
2022-08-03T19:33:22.841Z,23.64
2022-08-03T19:35:55.295Z,23.69
2022-08-03T19:38:28.516Z,23.30
2022-08-03T19:41:00.068Z,23.67
2022-08-03T19:43:49.388Z,22.87
2022-08-03T19:46:30.137Z,23.85
2022-08-03T19:49:14.522Z,23.61
2022-08-03T19:51:58.371Z,23.48
2022-08-03T19:54:54.038Z,22.67
2022-08-03T19:57:27.437Z,23.28
2022-08-03T19:59:56.985Z,22.98
2022-08-03T20:02:26.480Z,23.21
2022-08-03T20:04:57.459Z,23.02
2022-08-03T20:07:26.529Z,23.16
2022-08-03T20:09:56.649Z,23.07
2022-08-03T20:12:28.415Z,23.05
2022-08-03T20:14:59.725Z,23.05
2022-08-03T20:17:56.178Z,22.99
2022-08-03T20:20:30.831Z,22.87
2022-08-03T20:23:00.902Z,22.69
2022-08-03T20:25:38.919Z,22.43
2022-08-03T20:28:29.280Z,22.56
2022-08-03T20:30:57.660Z,22.53
2022-08-03T20:33:48.851Z,22.40
2022-08-03T20:36:17.810Z,22.37
2022-08-03T20:38:51.949Z,22.27
2022-08-03T20:41:20.108Z,22.14
2022-08-03T20:43:51.143Z,22.21
2022-08-03T20:46:32.890Z,21.96
2022-08-03T20:49:06.965Z,22.09
2022-08-03T20:51:49.567Z,21.82
2022-08-03T20:54:29.526Z,21.93
2022-08-03T20:57:04.204Z,21.34
2022-08-03T20:59:47.652Z,21.87
2022-08-03T21:02:30.322Z,22.02
2022-08-03T21:05:03.693Z,21.84
2022-08-03T21:08:06.896Z,21.75
2022-08-03T21:10:41.974Z,21.65
2022-08-03T21:13:04.328Z,27.05
2022-08-03T21:13:18.817Z,21.53
2022-08-03T21:16:07.017Z,21.49
2022-08-03T21:18:44.924Z,21.61
2022-08-03T21:21:16.037Z,21.38
2022-08-03T21:23:48.782Z,21.57
2022-08-03T21:26:22.871Z,21.48
2022-08-03T21:28:53.171Z,20.89
2022-08-03T21:31:24.860Z,21.52
2022-08-03T21:34:05.440Z,21.05
2022-08-03T21:36:36.370Z,21.25
2022-08-03T21:39:08.548Z,21.61
2022-08-03T21:41:38.621Z,21.40
2022-08-03T21:44:07.171Z,21.69
2022-08-03T21:46:41.071Z,21.48
2022-08-03T21:50:04.710Z,21.40
2022-08-03T21:52:04.565Z,21.31
2022-08-03T21:54:38.350Z,21.27
2022-08-03T21:57:10.501Z,21.44
2022-08-03T21:59:39.991Z,21.41
2022-08-03T22:02:11.515Z,21.11
2022-08-03T22:04:55.329Z,21.08
2022-08-03T22:07:28.174Z,21.63
2022-08-03T22:09:58.680Z,20.88
2022-08-03T22:12:29.432Z,21.69
2022-08-03T22:15:00.319Z,21.47
2022-08-03T22:17:55.622Z,21.51
2022-08-03T22:20:25.252Z,21.36
2022-08-03T22:22:58.481Z,21.43
2022-08-03T22:25:29.434Z,21.43
2022-08-03T22:28:08.690Z,21.46
2022-08-03T22:30:37.660Z,21.34
2022-08-03T22:33:11.467Z,21.37
2022-08-03T22:35:47.794Z,21.20
2022-08-03T22:38:17.678Z,21.26
2022-08-03T22:40:48.872Z,21.15
2022-08-03T22:43:17.007Z,20.81
2022-08-03T22:46:08.835Z,20.95
2022-08-03T22:48:35.702Z,21.02
2022-08-03T22:51:09.371Z,20.66
2022-08-03T22:53:37.452Z,20.41
2022-08-03T22:56:05.491Z,20.46
2022-08-03T22:58:33.584Z,20.89
2022-08-03T23:01:07.961Z,20.88
2022-08-03T23:04:00.538Z,20.73
2022-08-03T23:06:39.301Z,20.82
2022-08-03T23:09:09.817Z,20.15
2022-08-03T23:11:45.362Z,20.57
2022-08-03T23:14:16.520Z,20.29
2022-08-03T23:16:45.681Z,20.80
2022-08-03T23:19:16.998Z,20.68
2022-08-03T23:22:02.327Z,20.24
2022-08-03T23:24:38.251Z,20.53
2022-08-03T23:27:07.751Z,20.75
2022-08-03T23:29:39.770Z,20.60
2022-08-03T23:32:08.480Z,20.59
2022-08-03T23:34:58.121Z,20.71
2022-08-03T23:37:27.123Z,20.50
2022-08-03T23:39:57.231Z,20.16
2022-08-03T23:42:25.721Z,20.08
2022-08-03T23:44:56.700Z,20.57
2022-08-03T23:47:47.092Z,20.53
2022-08-03T23:50:16.561Z,20.51
2022-08-03T23:53:20.692Z,20.00
2022-08-03T23:56:09.951Z,20.45
2022-08-03T23:58:51.840Z,20.12
